Gaylord, MI (49735)

11:28 AM EDT op 31 maart 2015 (GMT -0400)
Castlewood Drive | | Change Station
CLOSE
Current Station
Persoonlijk weerstation
Location: Gaylord, MI
Geometrische hoogte: 1315 ft
Nabije weerstations

Hoogte 1315 ft 44.99 °N, 84.66 °W | Updated 1 minute ago

Helder
Helder
36.8 °F
Voelt als 37 °F
N
1.0
Wind Variabel Wind van noord
Gusts 1.0 mijl/u

Vandaag
Hoog -- | Laag -- °F
--% Kans op neerslag
Gisteren
Hoog -- | Laag -- °F
Precip. -- inches
7:21 AM 8:04 PM
Wassende maan, 87% visible
Druk 29.88 inches
Zicht 10.0 mijlen
Wolken Helder
Gevoelstemperatuur 37 °F
Dauwpunt 25 °F
Vochtigheid 61%
Neerslag 0.00 inches
Dikte sneeuw Niet beschikbaar.
UV 1.9 van de 12
Pollen .50 van de 12
Luchtkwaliteit Niet beschikbaar.
Flu Activity Niet beschikbaar.
METAR KGLR 311453Z AUTO 32006KT 10SM CLR 02/M06 A2984 RMK AO2 SLP118 6//// T00171061

More Conditions Fewer Conditions

Druk 29.88 inches
Zicht 10.0 mijlen
Wolken Helder
Gevoelstemperatuur 37 °F
Dauwpunt 25 °F
Vochtigheid 61%
Neerslag 0.00 inches
Dikte sneeuw Niet beschikbaar.
UV 1.9 van de 12
Pollen .50 van de 12
Luchtkwaliteit Niet beschikbaar.
Flu Activity Niet beschikbaar.
METAR KGLR 311453Z AUTO 32006KT 10SM CLR 02/M06 A2984 RMK AO2 SLP118 6//// T00171061

More Conditions Fewer Conditions

Nowcast | as of 11:00 am EDT on March 31, 2015

At 12 PM...partly cloudy. Temperature 35. Light winds. At 2 PM...cloudy. Temperature 39. Northwest winds 5 mph. At 4 PM...cloudy. Temperature 40. West winds 7 mph. At 6 PM...cloudy. Temperature 39. West winds 6 mph.

×

10-Day Weather Forecast

Almanac

Astronomie

Mar. 31, 2015 Opkomst Ondergang
Werkelijke tijd
Burgerlijke schemering
Nautische schemering
Astronomische schemering
Maan
Golflengte van het zichtbare licht
Daglengte
Tomorrow will be .
, % of the Moon is Illuminated

Extremen vandaag

State Highs State Lows

Community

WunderPhotos

Upload Photos

1,809,778 foto’s ge-upload!

WunderBlogs® & News

Nearby

Luchtkwaliteit

  Luchtkwaliteit LK-index Verontreinigende stof
Not available.

Dikte sneeuw

Station Depth Geometrische hoogte

Aardbevingen

Stad Distance Mag. Time & Date
Minimum magnitude displayed is 2.5.

Watertemperatuur langs de kust

Plaats Temperatuur

Stations

Nabije weerstations

Locatie station Temp. Gevoelstemperatuur Dauwpunt Vochtigheid Wind Precip. Hoogte Geactualiseerd Type